createdAt,value
2019-01-14T00:05:10.027Z,12.50
2019-01-14T00:20:43.371Z,9.50
2019-01-14T00:36:17.687Z,13.13
2019-01-14T00:51:51.445Z,8.10
2019-01-14T01:07:24.699Z,6.57
2019-01-14T01:22:57.917Z,14.70
2019-01-14T01:38:30.907Z,14.30
2019-01-14T01:54:04.064Z,12.13
2019-01-14T02:09:37.338Z,9.97
2019-01-14T02:25:10.198Z,12.97
2019-01-14T02:40:43.647Z,12.87
2019-01-14T02:56:16.601Z,8.67
2019-01-14T03:11:20.148Z,11.70
2019-01-14T03:26:33.284Z,10.57
2019-01-14T03:41:37.928Z,10.20
2019-01-14T03:56:41.699Z,11.33
2019-01-14T04:11:44.457Z,23.07
2019-01-14T04:26:47.134Z,8.60
2019-01-14T04:41:49.717Z,8.07
2019-01-14T04:56:52.594Z,9.47
2019-01-14T05:11:56.429Z,8.40
2019-01-14T05:27:05.434Z,10.33
2019-01-14T05:42:08.263Z,11.70
2019-01-14T05:57:10.907Z,27.83
2019-01-14T06:12:14.346Z,8.70
2019-01-14T06:27:16.936Z,6.97
2019-01-14T06:42:20.390Z,8.90
2019-01-14T06:57:23.006Z,24.17
2019-01-14T07:12:27.145Z,16.30
2019-01-14T07:27:29.833Z,16.57
2019-01-14T07:42:32.408Z,16.20
2019-01-14T07:57:35.023Z,12.37
2019-01-14T08:12:38.172Z,27.07
2019-01-14T08:27:40.851Z,14.73
2019-01-14T08:42:44.355Z,14.77
2019-01-14T08:57:54.421Z,12.43
2019-01-14T09:12:54.314Z,13.53
2019-01-14T09:27:56.998Z,16.30
2019-01-14T09:42:59.605Z,26.50
2019-01-14T09:58:02.846Z,19.80
2019-01-14T10:13:05.699Z,45.47
2019-01-14T10:28:08.526Z,19.03
2019-01-14T10:43:11.086Z,17.80
2019-01-14T10:58:13.717Z,23.07
2019-01-14T11:13:16.332Z,15.23
2019-01-14T11:28:19.393Z,20.73
2019-01-14T11:43:22.057Z,22.67
2019-01-14T11:58:24.623Z,19.57
2019-01-14T12:13:28.554Z,27.00
2019-01-14T12:28:32.782Z,26.33
2019-01-14T12:43:35.356Z,19.23
2019-01-14T12:58:38.029Z,21.37
2019-01-14T13:13:41.766Z,30.20
2019-01-14T13:28:44.917Z,19.73
2019-01-14T13:43:48.427Z,17.57
2019-01-14T13:58:51.701Z,19.23
2019-01-14T14:13:55.355Z,16.80
2019-01-14T14:28:58.316Z,16.97
2019-01-14T14:44:00.884Z,15.57
2019-01-14T14:59:04.810Z,22.00
2019-01-14T15:14:10.686Z,18.47
2019-01-14T15:29:14.291Z,22.63
2019-01-14T15:44:16.861Z,24.20
2019-01-14T15:59:19.450Z,21.80
2019-01-14T16:14:22.047Z,34.67
2019-01-14T16:29:24.613Z,21.50
2019-01-14T16:44:27.208Z,23.30
2019-01-14T16:59:30.654Z,23.70
2019-01-14T17:14:33.266Z,23.83
2019-01-14T17:29:35.888Z,23.63
2019-01-14T17:44:39.884Z,29.50
2019-01-14T17:59:42.682Z,26.30
2019-01-14T18:14:45.284Z,32.73
2019-01-14T18:29:48.180Z,33.40
2019-01-14T18:44:50.805Z,2.93
2019-01-14T18:59:53.388Z,3.93
2019-01-14T19:14:57.720Z,4.30
2019-01-14T19:30:01.581Z,8.97
2019-01-14T19:45:06.790Z,4.17
2019-01-14T20:00:15.924Z,3.50
2019-01-14T20:15:21.291Z,3.63
2019-01-14T20:30:24.997Z,3.57
2019-01-14T20:45:27.694Z,4.00
2019-01-14T21:00:30.262Z,3.37
2019-01-14T21:15:32.869Z,4.17
2019-01-14T21:30:36.952Z,3.00
2019-01-14T21:45:39.638Z,3.10
2019-01-14T22:00:43.006Z,2.10
2019-01-14T22:15:45.564Z,2.37
2019-01-14T22:30:49.317Z,2.00
2019-01-14T22:45:52.354Z,1.90
2019-01-14T23:01:01.968Z,2.13
2019-01-14T23:16:05.911Z,1.50
2019-01-14T23:31:08.540Z,2.40
2019-01-14T23:46:11.133Z,2.43
